sensor_id;sensor_type;location;lat;lon;timestamp;temperature;humidity
7666;DHT22;3875;46.562;4.898;2023-08-24T00:02:06;27.50;66.50
7666;DHT22;3875;46.562;4.898;2023-08-24T00:04:32;27.50;66.20
7666;DHT22;3875;46.562;4.898;2023-08-24T00:06:58;27.40;66.30
7666;DHT22;3875;46.562;4.898;2023-08-24T00:09:23;27.40;66.50
7666;DHT22;3875;46.562;4.898;2023-08-24T00:11:50;27.20;66.90
7666;DHT22;3875;46.562;4.898;2023-08-24T00:14:15;27.20;66.90
7666;DHT22;3875;46.562;4.898;2023-08-24T00:16:42;27.10;67.30
7666;DHT22;3875;46.562;4.898;2023-08-24T00:19:07;27.10;67.40
7666;DHT22;3875;46.562;4.898;2023-08-24T00:21:33;26.90;67.50
7666;DHT22;3875;46.562;4.898;2023-08-24T00:23:59;26.80;68.00
7666;DHT22;3875;46.562;4.898;2023-08-24T00:26:25;26.90;67.70
7666;DHT22;3875;46.562;4.898;2023-08-24T00:28:51;26.80;67.60
7666;DHT22;3875;46.562;4.898;2023-08-24T00:31:17;26.80;67.70
7666;DHT22;3875;46.562;4.898;2023-08-24T00:33:42;26.70;67.90
7666;DHT22;3875;46.562;4.898;2023-08-24T00:36:08;26.60;68.00
7666;DHT22;3875;46.562;4.898;2023-08-24T00:38:34;26.40;68.50
7666;DHT22;3875;46.562;4.898;2023-08-24T00:41:00;26.30;68.70
7666;DHT22;3875;46.562;4.898;2023-08-24T00:43:26;26.20;68.90
7666;DHT22;3875;46.562;4.898;2023-08-24T00:45:55;26.10;69.10
7666;DHT22;3875;46.562;4.898;2023-08-24T00:48:22;26.10;69.10
7666;DHT22;3875;46.562;4.898;2023-08-24T00:50:52;26.10;69.10
7666;DHT22;3875;46.562;4.898;2023-08-24T00:53:19;26.20;69.40
7666;DHT22;3875;46.562;4.898;2023-08-24T00:55:45;26.30;69.50
7666;DHT22;3875;46.562;4.898;2023-08-24T00:58:12;26.40;69.30
7666;DHT22;3875;46.562;4.898;2023-08-24T01:00:38;26.40;69.40
7666;DHT22;3875;46.562;4.898;2023-08-24T01:03:04;26.40;69.10
7666;DHT22;3875;46.562;4.898;2023-08-24T01:05:30;26.30;68.90
7666;DHT22;3875;46.562;4.898;2023-08-24T01:07:56;26.00;69.30
7666;DHT22;3875;46.562;4.898;2023-08-24T01:10:22;25.80;69.90
7666;DHT22;3875;46.562;4.898;2023-08-24T01:13:07;25.60;70.60
7666;DHT22;3875;46.562;4.898;2023-08-24T01:18:13;25.40;71.10
7666;DHT22;3875;46.562;4.898;2023-08-24T01:20:40;25.40;71.20
7666;DHT22;3875;46.562;4.898;2023-08-24T01:23:28;25.50;71.00
7666;DHT22;3875;46.562;4.898;2023-08-24T01:26:26;25.50;71.10
7666;DHT22;3875;46.562;4.898;2023-08-24T01:28:52;25.50;71.10
7666;DHT22;3875;46.562;4.898;2023-08-24T01:31:19;25.60;70.80
7666;DHT22;3875;46.562;4.898;2023-08-24T01:33:45;25.60;70.90
7666;DHT22;3875;46.562;4.898;2023-08-24T01:36:13;25.60;70.70
7666;DHT22;3875;46.562;4.898;2023-08-24T01:38:39;25.50;70.80
7666;DHT22;3875;46.562;4.898;2023-08-24T01:41:16;25.40;71.20
7666;DHT22;3875;46.562;4.898;2023-08-24T01:43:47;25.30;71.40
7666;DHT22;3875;46.562;4.898;2023-08-24T01:46:16;25.00;72.10
7666;DHT22;3875;46.562;4.898;2023-08-24T01:48:43;25.00;72.20
7666;DHT22;3875;46.562;4.898;2023-08-24T01:51:10;25.00;72.10
7666;DHT22;3875;46.562;4.898;2023-08-24T01:53:37;25.00;72.20
7666;DHT22;3875;46.562;4.898;2023-08-24T01:56:21;25.00;72.20
7666;DHT22;3875;46.562;4.898;2023-08-24T01:58:47;24.90;72.70
7666;DHT22;3875;46.562;4.898;2023-08-24T02:01:12;24.80;72.80
7666;DHT22;3875;46.562;4.898;2023-08-24T02:03:38;24.70;73.20
7666;DHT22;3875;46.562;4.898;2023-08-24T02:06:05;24.70;73.30
7666;DHT22;3875;46.562;4.898;2023-08-24T02:08:32;24.70;73.50
7666;DHT22;3875;46.562;4.898;2023-08-24T02:10:58;24.70;73.20
7666;DHT22;3875;46.562;4.898;2023-08-24T02:13:23;24.70;73.20
7666;DHT22;3875;46.562;4.898;2023-08-24T02:15:49;24.70;73.40
7666;DHT22;3875;46.562;4.898;2023-08-24T02:18:15;24.70;73.40
7666;DHT22;3875;46.562;4.898;2023-08-24T02:20:40;24.60;73.50
7666;DHT22;3875;46.562;4.898;2023-08-24T02:23:06;24.60;73.50
7666;DHT22;3875;46.562;4.898;2023-08-24T02:25:32;24.60;73.60
7666;DHT22;3875;46.562;4.898;2023-08-24T02:27:59;24.60;73.70
7666;DHT22;3875;46.562;4.898;2023-08-24T02:30:24;24.50;73.70
7666;DHT22;3875;46.562;4.898;2023-08-24T02:32:50;24.50;73.70
7666;DHT22;3875;46.562;4.898;2023-08-24T02:35:16;24.60;73.70
7666;DHT22;3875;46.562;4.898;2023-08-24T02:37:42;24.60;73.60
7666;DHT22;3875;46.562;4.898;2023-08-24T02:40:08;24.50;73.50
7666;DHT22;3875;46.562;4.898;2023-08-24T02:42:37;24.30;74.40
7666;DHT22;3875;46.562;4.898;2023-08-24T02:45:03;24.10;75.10
7666;DHT22;3875;46.562;4.898;2023-08-24T02:47:29;23.80;75.90
7666;DHT22;3875;46.562;4.898;2023-08-24T02:49:55;23.60;76.30
7666;DHT22;3875;46.562;4.898;2023-08-24T02:52:20;23.50;76.60
7666;DHT22;3875;46.562;4.898;2023-08-24T02:54:46;23.40;77.20
7666;DHT22;3875;46.562;4.898;2023-08-24T02:57:12;23.50;76.90
7666;DHT22;3875;46.562;4.898;2023-08-24T02:59:37;23.60;76.50
7666;DHT22;3875;46.562;4.898;2023-08-24T03:02:04;23.60;76.40
7666;DHT22;3875;46.562;4.898;2023-08-24T03:04:30;23.70;75.90
7666;DHT22;3875;46.562;4.898;2023-08-24T03:06:56;23.80;75.80
7666;DHT22;3875;46.562;4.898;2023-08-24T03:09:22;23.90;75.70
7666;DHT22;3875;46.562;4.898;2023-08-24T03:11:47;24.00;75.70
7666;DHT22;3875;46.562;4.898;2023-08-24T03:14:13;24.00;75.50
7666;DHT22;3875;46.562;4.898;2023-08-24T03:16:39;24.00;75.50
7666;DHT22;3875;46.562;4.898;2023-08-24T03:19:04;24.00;75.50
7666;DHT22;3875;46.562;4.898;2023-08-24T03:21:30;24.00;75.80
7666;DHT22;3875;46.562;4.898;2023-08-24T03:23:56;23.90;75.50
7666;DHT22;3875;46.562;4.898;2023-08-24T03:26:22;23.80;75.90
7666;DHT22;3875;46.562;4.898;2023-08-24T03:28:49;23.80;76.10
7666;DHT22;3875;46.562;4.898;2023-08-24T03:31:15;23.90;75.80
7666;DHT22;3875;46.562;4.898;2023-08-24T03:33:40;23.90;75.90
7666;DHT22;3875;46.562;4.898;2023-08-24T03:36:06;24.00;75.70
7666;DHT22;3875;46.562;4.898;2023-08-24T03:38:32;23.90;75.50
7666;DHT22;3875;46.562;4.898;2023-08-24T03:41:02;23.90;75.60
7666;DHT22;3875;46.562;4.898;2023-08-24T03:43:31;23.90;75.90
7666;DHT22;3875;46.562;4.898;2023-08-24T03:45:56;23.90;75.90
7666;DHT22;3875;46.562;4.898;2023-08-24T03:48:22;23.90;75.80
7666;DHT22;3875;46.562;4.898;2023-08-24T03:50:48;23.90;75.80
7666;DHT22;3875;46.562;4.898;2023-08-24T03:53:13;23.70;76.10
7666;DHT22;3875;46.562;4.898;2023-08-24T03:55:39;23.60;76.50
7666;DHT22;3875;46.562;4.898;2023-08-24T03:58:04;23.50;76.60
7666;DHT22;3875;46.562;4.898;2023-08-24T04:00:30;23.50;77.10
7666;DHT22;3875;46.562;4.898;2023-08-24T04:02:56;23.50;76.70
7666;DHT22;3875;46.562;4.898;2023-08-24T04:05:22;23.50;77.00
7666;DHT22;3875;46.562;4.898;2023-08-24T04:07:48;23.40;77.10
7666;DHT22;3875;46.562;4.898;2023-08-24T04:10:13;23.40;77.20
7666;DHT22;3875;46.562;4.898;2023-08-24T04:12:39;23.50;77.10
7666;DHT22;3875;46.562;4.898;2023-08-24T04:15:05;23.50;76.90
7666;DHT22;3875;46.562;4.898;2023-08-24T04:17:31;23.50;76.80
7666;DHT22;3875;46.562;4.898;2023-08-24T04:19:57;23.50;76.90
7666;DHT22;3875;46.562;4.898;2023-08-24T04:22:22;23.40;77.40
7666;DHT22;3875;46.562;4.898;2023-08-24T04:24:48;23.40;77.50
7666;DHT22;3875;46.562;4.898;2023-08-24T04:27:14;23.40;77.70
7666;DHT22;3875;46.562;4.898;2023-08-24T04:29:39;23.40;77.60
7666;DHT22;3875;46.562;4.898;2023-08-24T04:32:06;23.50;77.50
7666;DHT22;3875;46.562;4.898;2023-08-24T04:34:31;23.40;77.60
7666;DHT22;3875;46.562;4.898;2023-08-24T04:36:57;23.40;77.70
7666;DHT22;3875;46.562;4.898;2023-08-24T04:39:23;23.30;77.90
7666;DHT22;3875;46.562;4.898;2023-08-24T04:41:49;23.20;78.20
7666;DHT22;3875;46.562;4.898;2023-08-24T04:44:15;23.20;78.30
7666;DHT22;3875;46.562;4.898;2023-08-24T04:46:41;23.10;78.50
7666;DHT22;3875;46.562;4.898;2023-08-24T04:49:07;23.00;78.40
7666;DHT22;3875;46.562;4.898;2023-08-24T04:51:32;22.90;78.70
7666;DHT22;3875;46.562;4.898;2023-08-24T04:53:58;22.90;78.90
7666;DHT22;3875;46.562;4.898;2023-08-24T04:56:24;22.90;79.00
7666;DHT22;3875;46.562;4.898;2023-08-24T04:58:56;22.90;79.00
7666;DHT22;3875;46.562;4.898;2023-08-24T05:01:23;22.90;78.80
7666;DHT22;3875;46.562;4.898;2023-08-24T05:03:51;22.90;78.90
7666;DHT22;3875;46.562;4.898;2023-08-24T05:06:17;22.90;78.80
7666;DHT22;3875;46.562;4.898;2023-08-24T05:08:43;22.80;79.40
7666;DHT22;3875;46.562;4.898;2023-08-24T05:11:19;22.70;79.60
7666;DHT22;3875;46.562;4.898;2023-08-24T05:13:45;22.70;79.80
7666;DHT22;3875;46.562;4.898;2023-08-24T05:16:12;22.60;80.20
7666;DHT22;3875;46.562;4.898;2023-08-24T05:18:38;22.60;80.40
7666;DHT22;3875;46.562;4.898;2023-08-24T05:21:04;22.60;80.20
7666;DHT22;3875;46.562;4.898;2023-08-24T05:23:31;22.60;80.10
7666;DHT22;3875;46.562;4.898;2023-08-24T05:25:58;22.70;80.10
7666;DHT22;3875;46.562;4.898;2023-08-24T05:28:28;22.70;80.30
7666;DHT22;3875;46.562;4.898;2023-08-24T05:30:54;22.80;80.30
7666;DHT22;3875;46.562;4.898;2023-08-24T05:33:21;22.70;80.70
7666;DHT22;3875;46.562;4.898;2023-08-24T05:35:48;22.70;80.60
7666;DHT22;3875;46.562;4.898;2023-08-24T05:38:14;22.80;80.50
7666;DHT22;3875;46.562;4.898;2023-08-24T05:40:40;22.90;80.00
7666;DHT22;3875;46.562;4.898;2023-08-24T05:43:08;23.10;79.70
7666;DHT22;3875;46.562;4.898;2023-08-24T05:45:35;23.20;79.60
7666;DHT22;3875;46.562;4.898;2023-08-24T05:48:01;23.40;79.40
7666;DHT22;3875;46.562;4.898;2023-08-24T05:50:26;23.50;78.90
7666;DHT22;3875;46.562;4.898;2023-08-24T05:52:52;23.70;79.10
7666;DHT22;3875;46.562;4.898;2023-08-24T05:55:18;23.80;79.00
7666;DHT22;3875;46.562;4.898;2023-08-24T05:57:43;23.90;78.80
7666;DHT22;3875;46.562;4.898;2023-08-24T06:00:11;24.00;78.60
7666;DHT22;3875;46.562;4.898;2023-08-24T06:02:37;24.20;78.20
7666;DHT22;3875;46.562;4.898;2023-08-24T06:05:06;24.30;77.90
7666;DHT22;3875;46.562;4.898;2023-08-24T06:07:32;24.50;77.70
7666;DHT22;3875;46.562;4.898;2023-08-24T06:09:58;24.60;77.60
7666;DHT22;3875;46.562;4.898;2023-08-24T06:12:24;24.70;77.00
7666;DHT22;3875;46.562;4.898;2023-08-24T06:14:49;24.90;76.90
7666;DHT22;3875;46.562;4.898;2023-08-24T06:17:15;25.00;76.80
7666;DHT22;3875;46.562;4.898;2023-08-24T06:19:41;25.10;76.50
7666;DHT22;3875;46.562;4.898;2023-08-24T06:22:07;25.10;76.40
7666;DHT22;3875;46.562;4.898;2023-08-24T06:24:33;25.20;76.10
7666;DHT22;3875;46.562;4.898;2023-08-24T06:26:58;25.30;76.00
7666;DHT22;3875;46.562;4.898;2023-08-24T06:29:24;25.40;75.80
7666;DHT22;3875;46.562;4.898;2023-08-24T06:31:50;25.60;75.60
7666;DHT22;3875;46.562;4.898;2023-08-24T06:34:15;25.60;75.60
7666;DHT22;3875;46.562;4.898;2023-08-24T06:36:41;25.80;75.40
7666;DHT22;3875;46.562;4.898;2023-08-24T06:39:07;26.00;75.60
7666;DHT22;3875;46.562;4.898;2023-08-24T06:41:36;26.10;75.40
7666;DHT22;3875;46.562;4.898;2023-08-24T06:44:02;26.20;75.10
7666;DHT22;3875;46.562;4.898;2023-08-24T06:46:29;26.20;75.30
7666;DHT22;3875;46.562;4.898;2023-08-24T06:48:55;26.30;75.10
7666;DHT22;3875;46.562;4.898;2023-08-24T06:51:21;26.30;75.20
7666;DHT22;3875;46.562;4.898;2023-08-24T06:53:46;26.40;75.40
7666;DHT22;3875;46.562;4.898;2023-08-24T06:56:14;26.50;75.60
7666;DHT22;3875;46.562;4.898;2023-08-24T06:58:48;26.50;75.80
7666;DHT22;3875;46.562;4.898;2023-08-24T07:01:13;26.50;76.00
7666;DHT22;3875;46.562;4.898;2023-08-24T07:03:39;26.60;75.80
7666;DHT22;3875;46.562;4.898;2023-08-24T07:06:06;26.80;75.60
7666;DHT22;3875;46.562;4.898;2023-08-24T07:08:33;26.90;75.70
7666;DHT22;3875;46.562;4.898;2023-08-24T07:10:59;27.10;75.40
7666;DHT22;3875;46.562;4.898;2023-08-24T07:13:25;27.20;75.20
7666;DHT22;3875;46.562;4.898;2023-08-24T07:15:52;27.30;75.00
7666;DHT22;3875;46.562;4.898;2023-08-24T07:18:17;27.40;74.70
7666;DHT22;3875;46.562;4.898;2023-08-24T07:20:43;27.50;74.50
7666;DHT22;3875;46.562;4.898;2023-08-24T07:23:08;27.60;74.00
7666;DHT22;3875;46.562;4.898;2023-08-24T07:25:34;27.80;73.80
7666;DHT22;3875;46.562;4.898;2023-08-24T07:28:00;27.90;73.10
7666;DHT22;3875;46.562;4.898;2023-08-24T07:30:26;28.10;71.80
7666;DHT22;3875;46.562;4.898;2023-08-24T07:32:53;28.10;71.40
7666;DHT22;3875;46.562;4.898;2023-08-24T07:35:19;28.20;71.40
7666;DHT22;3875;46.562;4.898;2023-08-24T07:37:49;28.40;70.30
7666;DHT22;3875;46.562;4.898;2023-08-24T07:40:15;28.60;70.10
7666;DHT22;3875;46.562;4.898;2023-08-24T07:42:45;28.80;69.00
7666;DHT22;3875;46.562;4.898;2023-08-24T07:45:11;28.90;69.00
7666;DHT22;3875;46.562;4.898;2023-08-24T07:47:37;28.90;68.90
7666;DHT22;3875;46.562;4.898;2023-08-24T07:50:03;29.30;68.40
7666;DHT22;3875;46.562;4.898;2023-08-24T07:52:29;29.50;67.70
7666;DHT22;3875;46.562;4.898;2023-08-24T07:54:55;29.50;67.80
7666;DHT22;3875;46.562;4.898;2023-08-24T07:57:24;29.70;67.80
7666;DHT22;3875;46.562;4.898;2023-08-24T07:59:51;29.90;67.20
7666;DHT22;3875;46.562;4.898;2023-08-24T08:02:18;29.90;67.00
7666;DHT22;3875;46.562;4.898;2023-08-24T08:04:43;30.20;67.10
7666;DHT22;3875;46.562;4.898;2023-08-24T08:07:09;30.30;66.80
7666;DHT22;3875;46.562;4.898;2023-08-24T08:09:36;30.40;66.80
7666;DHT22;3875;46.562;4.898;2023-08-24T08:12:02;30.50;67.00
7666;DHT22;3875;46.562;4.898;2023-08-24T08:14:29;30.70;66.40
7666;DHT22;3875;46.562;4.898;2023-08-24T08:16:55;30.90;66.60
7666;DHT22;3875;46.562;4.898;2023-08-24T08:19:21;31.00;66.20
7666;DHT22;3875;46.562;4.898;2023-08-24T08:21:47;31.10;66.20
7666;DHT22;3875;46.562;4.898;2023-08-24T08:24:13;31.10;66.50
7666;DHT22;3875;46.562;4.898;2023-08-24T08:26:38;31.10;66.70
7666;DHT22;3875;46.562;4.898;2023-08-24T08:29:05;31.00;66.40
7666;DHT22;3875;46.562;4.898;2023-08-24T08:31:31;31.20;66.20
7666;DHT22;3875;46.562;4.898;2023-08-24T08:33:56;31.30;66.70
7666;DHT22;3875;46.562;4.898;2023-08-24T08:36:22;31.60;66.90
7666;DHT22;3875;46.562;4.898;2023-08-24T08:38:48;31.90;65.10
7666;DHT22;3875;46.562;4.898;2023-08-24T08:41:15;31.90;65.90
7666;DHT22;3875;46.562;4.898;2023-08-24T08:43:41;32.20;65.00
7666;DHT22;3875;46.562;4.898;2023-08-24T08:46:07;32.20;65.20
7666;DHT22;3875;46.562;4.898;2023-08-24T08:48:33;32.40;65.10
7666;DHT22;3875;46.562;4.898;2023-08-24T08:51:01;32.50;65.30
7666;DHT22;3875;46.562;4.898;2023-08-24T08:53:28;32.50;65.10
7666;DHT22;3875;46.562;4.898;2023-08-24T08:55:55;32.50;64.40
7666;DHT22;3875;46.562;4.898;2023-08-24T08:58:21;32.40;64.80
7666;DHT22;3875;46.562;4.898;2023-08-24T09:00:47;32.40;65.30
7666;DHT22;3875;46.562;4.898;2023-08-24T09:03:18;32.40;64.80
7666;DHT22;3875;46.562;4.898;2023-08-24T09:05:44;32.60;65.10
7666;DHT22;3875;46.562;4.898;2023-08-24T09:08:15;32.90;64.50
7666;DHT22;3875;46.562;4.898;2023-08-24T09:10:41;33.00;64.10
7666;DHT22;3875;46.562;4.898;2023-08-24T09:13:07;33.30;63.80
7666;DHT22;3875;46.562;4.898;2023-08-24T09:15:35;33.50;63.80
7666;DHT22;3875;46.562;4.898;2023-08-24T09:18:01;33.50;63.40
7666;DHT22;3875;46.562;4.898;2023-08-24T09:20:31;33.80;63.00
7666;DHT22;3875;46.562;4.898;2023-08-24T09:22:58;33.90;62.80
7666;DHT22;3875;46.562;4.898;2023-08-24T09:25:24;34.00;62.90
7666;DHT22;3875;46.562;4.898;2023-08-24T09:28:00;34.20;63.00
7666;DHT22;3875;46.562;4.898;2023-08-24T09:30:33;34.50;61.90
7666;DHT22;3875;46.562;4.898;2023-08-24T09:33:12;34.70;61.70
7666;DHT22;3875;46.562;4.898;2023-08-24T09:35:39;34.90;61.50
7666;DHT22;3875;46.562;4.898;2023-08-24T09:38:22;35.00;61.20
7666;DHT22;3875;46.562;4.898;2023-08-24T09:40:53;35.20;61.30
7666;DHT22;3875;46.562;4.898;2023-08-24T09:43:20;35.20;61.60
7666;DHT22;3875;46.562;4.898;2023-08-24T09:45:50;35.40;61.50
7666;DHT22;3875;46.562;4.898;2023-08-24T09:48:16;35.20;60.20
7666;DHT22;3875;46.562;4.898;2023-08-24T09:50:50;35.50;60.10
7666;DHT22;3875;46.562;4.898;2023-08-24T09:53:17;35.20;60.70
7666;DHT22;3875;46.562;4.898;2023-08-24T09:58:14;35.30;60.50
7666;DHT22;3875;46.562;4.898;2023-08-24T10:00:41;35.50;60.40
7666;DHT22;3875;46.562;4.898;2023-08-24T10:03:08;35.50;60.70
7666;DHT22;3875;46.562;4.898;2023-08-24T10:05:35;35.80;59.90
7666;DHT22;3875;46.562;4.898;2023-08-24T10:08:02;36.20;59.60
7666;DHT22;3875;46.562;4.898;2023-08-24T10:10:29;36.50;58.30
7666;DHT22;3875;46.562;4.898;2023-08-24T10:13:00;36.70;58.40
7666;DHT22;3875;46.562;4.898;2023-08-24T10:15:26;36.70;58.20
7666;DHT22;3875;46.562;4.898;2023-08-24T10:17:53;36.70;58.10
7666;DHT22;3875;46.562;4.898;2023-08-24T10:20:20;36.70;58.10
7666;DHT22;3875;46.562;4.898;2023-08-24T10:22:47;36.90;58.30
7666;DHT22;3875;46.562;4.898;2023-08-24T10:25:16;37.30;56.90
7666;DHT22;3875;46.562;4.898;2023-08-24T10:27:42;37.40;56.00
7666;DHT22;3875;46.562;4.898;2023-08-24T10:30:12;37.40;56.30
7666;DHT22;3875;46.562;4.898;2023-08-24T10:32:40;37.30;56.50
7666;DHT22;3875;46.562;4.898;2023-08-24T10:35:06;37.60;56.20
7666;DHT22;3875;46.562;4.898;2023-08-24T10:37:32;37.80;55.30
7666;DHT22;3875;46.562;4.898;2023-08-24T10:40:00;37.70;55.00
7666;DHT22;3875;46.562;4.898;2023-08-24T10:42:26;37.70;56.00
7666;DHT22;3875;46.562;4.898;2023-08-24T10:44:52;37.60;56.30
7666;DHT22;3875;46.562;4.898;2023-08-24T10:50:04;37.70;55.70
7666;DHT22;3875;46.562;4.898;2023-08-24T10:52:30;37.90;55.10
7666;DHT22;3875;46.562;4.898;2023-08-24T10:55:01;37.90;55.40
7666;DHT22;3875;46.562;4.898;2023-08-24T10:57:37;38.10;54.70
7666;DHT22;3875;46.562;4.898;2023-08-24T11:00:07;38.20;54.80
7666;DHT22;3875;46.562;4.898;2023-08-24T11:02:42;38.40;54.60
7666;DHT22;3875;46.562;4.898;2023-08-24T11:05:18;38.50;54.20
7666;DHT22;3875;46.562;4.898;2023-08-24T11:08:01;38.70;53.90
7666;DHT22;3875;46.562;4.898;2023-08-24T11:10:46;38.50;53.40
7666;DHT22;3875;46.562;4.898;2023-08-24T11:13:12;38.60;53.80
7666;DHT22;3875;46.562;4.898;2023-08-24T11:15:43;38.70;53.40
7666;DHT22;3875;46.562;4.898;2023-08-24T11:20:43;38.90;53.40
7666;DHT22;3875;46.562;4.898;2023-08-24T11:23:09;39.00;52.40
7666;DHT22;3875;46.562;4.898;2023-08-24T11:25:36;38.90;52.20
7666;DHT22;3875;46.562;4.898;2023-08-24T11:28:03;39.00;53.30
7666;DHT22;3875;46.562;4.898;2023-08-24T11:30:32;39.30;53.10
7666;DHT22;3875;46.562;4.898;2023-08-24T11:32:58;39.50;51.40
7666;DHT22;3875;46.562;4.898;2023-08-24T11:35:25;39.60;51.20
7666;DHT22;3875;46.562;4.898;2023-08-24T11:37:55;39.60;51.60
7666;DHT22;3875;46.562;4.898;2023-08-24T11:40:21;39.60;51.30
7666;DHT22;3875;46.562;4.898;2023-08-24T11:42:54;39.60;51.80
7666;DHT22;3875;46.562;4.898;2023-08-24T11:45:20;39.60;51.90
7666;DHT22;3875;46.562;4.898;2023-08-24T11:47:47;39.70;50.90
7666;DHT22;3875;46.562;4.898;2023-08-24T11:50:13;39.70;51.10
7666;DHT22;3875;46.562;4.898;2023-08-24T11:52:42;40.00;51.00
7666;DHT22;3875;46.562;4.898;2023-08-24T11:55:08;40.10;49.70
7666;DHT22;3875;46.562;4.898;2023-08-24T11:57:37;40.00;50.30
7666;DHT22;3875;46.562;4.898;2023-08-24T12:00:04;40.00;50.10
7666;DHT22;3875;46.562;4.898;2023-08-24T12:02:33;40.00;50.20
7666;DHT22;3875;46.562;4.898;2023-08-24T12:04:58;40.10;49.70
7666;DHT22;3875;46.562;4.898;2023-08-24T12:07:25;40.20;49.90
7666;DHT22;3875;46.562;4.898;2023-08-24T12:09:54;40.30;49.90
7666;DHT22;3875;46.562;4.898;2023-08-24T12:12:21;40.30;49.30
7666;DHT22;3875;46.562;4.898;2023-08-24T12:14:49;40.50;49.60
7666;DHT22;3875;46.562;4.898;2023-08-24T12:17:17;40.60;49.70
7666;DHT22;3875;46.562;4.898;2023-08-24T12:19:57;40.60;49.50
7666;DHT22;3875;46.562;4.898;2023-08-24T12:22:23;40.70;48.30
7666;DHT22;3875;46.562;4.898;2023-08-24T12:24:49;40.70;49.00
7666;DHT22;3875;46.562;4.898;2023-08-24T12:27:24;40.70;48.90
7666;DHT22;3875;46.562;4.898;2023-08-24T12:29:51;40.70;48.40
7666;DHT22;3875;46.562;4.898;2023-08-24T12:32:20;40.50;49.00
7666;DHT22;3875;46.562;4.898;2023-08-24T12:34:48;40.90;48.00
7666;DHT22;3875;46.562;4.898;2023-08-24T12:37:17;41.00;48.70
7666;DHT22;3875;46.562;4.898;2023-08-24T12:39:42;41.10;48.60
7666;DHT22;3875;46.562;4.898;2023-08-24T12:42:08;41.20;47.20
7666;DHT22;3875;46.562;4.898;2023-08-24T12:44:34;41.40;46.30
7666;DHT22;3875;46.562;4.898;2023-08-24T12:47:01;41.60;46.50
7666;DHT22;3875;46.562;4.898;2023-08-24T12:49:28;41.80;45.90
7666;DHT22;3875;46.562;4.898;2023-08-24T12:51:53;41.80;45.70
7666;DHT22;3875;46.562;4.898;2023-08-24T12:54:19;41.70;46.00
7666;DHT22;3875;46.562;4.898;2023-08-24T12:56:45;41.80;45.20
7666;DHT22;3875;46.562;4.898;2023-08-24T12:59:10;41.70;45.80
7666;DHT22;3875;46.562;4.898;2023-08-24T13:01:37;41.90;45.20
7666;DHT22;3875;46.562;4.898;2023-08-24T13:04:04;42.10;44.00
7666;DHT22;3875;46.562;4.898;2023-08-24T13:06:30;42.20;45.30
7666;DHT22;3875;46.562;4.898;2023-08-24T13:08:55;42.40;45.00
7666;DHT22;3875;46.562;4.898;2023-08-24T13:11:21;42.40;44.80
7666;DHT22;3875;46.562;4.898;2023-08-24T13:13:48;42.80;44.30
7666;DHT22;3875;46.562;4.898;2023-08-24T13:16:13;43.00;44.50
7666;DHT22;3875;46.562;4.898;2023-08-24T13:18:40;43.10;44.70
7666;DHT22;3875;46.562;4.898;2023-08-24T13:21:05;43.20;44.30
7666;DHT22;3875;46.562;4.898;2023-08-24T13:23:31;42.70;43.50
7666;DHT22;3875;46.562;4.898;2023-08-24T13:25:58;42.10;44.50
7666;DHT22;3875;46.562;4.898;2023-08-24T13:28:24;41.90;44.20
7666;DHT22;3875;46.562;4.898;2023-08-24T13:30:50;41.40;45.10
7666;DHT22;3875;46.562;4.898;2023-08-24T13:33:16;41.10;44.90
7666;DHT22;3875;46.562;4.898;2023-08-24T13:35:41;40.80;45.70
7666;DHT22;3875;46.562;4.898;2023-08-24T13:38:07;40.60;46.70
7666;DHT22;3875;46.562;4.898;2023-08-24T13:40:33;40.30;46.80
7666;DHT22;3875;46.562;4.898;2023-08-24T13:42:58;40.10;47.30
7666;DHT22;3875;46.562;4.898;2023-08-24T13:45:24;39.90;47.80
7666;DHT22;3875;46.562;4.898;2023-08-24T13:47:50;39.60;48.60
7666;DHT22;3875;46.562;4.898;2023-08-24T13:50:15;39.30;49.10
7666;DHT22;3875;46.562;4.898;2023-08-24T13:52:41;39.10;48.80
7666;DHT22;3875;46.562;4.898;2023-08-24T13:55:07;38.80;49.80
7666;DHT22;3875;46.562;4.898;2023-08-24T13:57:33;38.60;50.00
7666;DHT22;3875;46.562;4.898;2023-08-24T13:59:58;38.40;51.00
7666;DHT22;3875;46.562;4.898;2023-08-24T14:02:25;38.10;52.40
7666;DHT22;3875;46.562;4.898;2023-08-24T14:04:50;37.90;52.90
7666;DHT22;3875;46.562;4.898;2023-08-24T14:07:16;37.60;54.00
7666;DHT22;3875;46.562;4.898;2023-08-24T14:09:42;37.40;54.40
7666;DHT22;3875;46.562;4.898;2023-08-24T14:12:07;36.90;56.20
7666;DHT22;3875;46.562;4.898;2023-08-24T14:14:33;35.80;60.30
7666;DHT22;3875;46.562;4.898;2023-08-24T14:16:58;34.70;63.00
7666;DHT22;3875;46.562;4.898;2023-08-24T14:19:24;34.00;66.70
7666;DHT22;3875;46.562;4.898;2023-08-24T14:21:50;33.70;68.70
7666;DHT22;3875;46.562;4.898;2023-08-24T14:24:16;33.10;68.80
7666;DHT22;3875;46.562;4.898;2023-08-24T14:26:42;30.40;76.50
7666;DHT22;3875;46.562;4.898;2023-08-24T14:29:11;30.40;76.30
7666;DHT22;3875;46.562;4.898;2023-08-24T14:31:36;29.70;78.70
7666;DHT22;3875;46.562;4.898;2023-08-24T14:34:02;29.40;79.10
7666;DHT22;3875;46.562;4.898;2023-08-24T14:36:28;29.20;79.30
7666;DHT22;3875;46.562;4.898;2023-08-24T14:38:54;28.90;80.80
7666;DHT22;3875;46.562;4.898;2023-08-24T14:41:19;28.50;82.40
7666;DHT22;3875;46.562;4.898;2023-08-24T14:43:45;28.40;82.80
7666;DHT22;3875;46.562;4.898;2023-08-24T14:46:11;28.50;82.50
7666;DHT22;3875;46.562;4.898;2023-08-24T14:48:36;28.30;81.80
7666;DHT22;3875;46.562;4.898;2023-08-24T14:51:02;28.20;81.60
7666;DHT22;3875;46.562;4.898;2023-08-24T14:53:27;28.00;82.00
7666;DHT22;3875;46.562;4.898;2023-08-24T14:55:55;28.10;81.20
7666;DHT22;3875;46.562;4.898;2023-08-24T14:58:20;28.40;81.30
7666;DHT22;3875;46.562;4.898;2023-08-24T15:00:47;28.60;80.00
7666;DHT22;3875;46.562;4.898;2023-08-24T15:03:12;28.70;80.30
7666;DHT22;3875;46.562;4.898;2023-08-24T15:05:42;28.90;79.90
7666;DHT22;3875;46.562;4.898;2023-08-24T15:08:07;29.20;79.50
7666;DHT22;3875;46.562;4.898;2023-08-24T15:10:33;29.40;78.60
7666;DHT22;3875;46.562;4.898;2023-08-24T15:12:58;29.60;78.30
7666;DHT22;3875;46.562;4.898;2023-08-24T15:15:24;30.00;79.80
7666;DHT22;3875;46.562;4.898;2023-08-24T15:17:49;30.60;78.90
7666;DHT22;3875;46.562;4.898;2023-08-24T15:20:15;31.00;76.30
7666;DHT22;3875;46.562;4.898;2023-08-24T15:22:41;31.00;73.90
7666;DHT22;3875;46.562;4.898;2023-08-24T15:25:06;31.20;73.80
7666;DHT22;3875;46.562;4.898;2023-08-24T15:27:32;31.60;73.50
7666;DHT22;3875;46.562;4.898;2023-08-24T15:29:58;31.90;71.70
7666;DHT22;3875;46.562;4.898;2023-08-24T15:32:23;31.80;71.30
7666;DHT22;3875;46.562;4.898;2023-08-24T15:34:49;31.70;72.10
7666;DHT22;3875;46.562;4.898;2023-08-24T15:37:15;31.80;72.00
7666;DHT22;3875;46.562;4.898;2023-08-24T15:39:40;31.90;71.60
7666;DHT22;3875;46.562;4.898;2023-08-24T15:42:06;31.70;71.60
7666;DHT22;3875;46.562;4.898;2023-08-24T15:44:32;31.70;71.80
7666;DHT22;3875;46.562;4.898;2023-08-24T15:46:58;31.60;71.40
7666;DHT22;3875;46.562;4.898;2023-08-24T15:49:24;31.60;70.00
7666;DHT22;3875;46.562;4.898;2023-08-24T15:51:53;31.40;70.30
7666;DHT22;3875;46.562;4.898;2023-08-24T15:54:19;31.10;70.40
7666;DHT22;3875;46.562;4.898;2023-08-24T15:56:44;30.90;71.10
7666;DHT22;3875;46.562;4.898;2023-08-24T15:59:11;30.90;71.20
7666;DHT22;3875;46.562;4.898;2023-08-24T16:01:37;31.10;70.50
7666;DHT22;3875;46.562;4.898;2023-08-24T16:04:03;31.30;70.40
7666;DHT22;3875;46.562;4.898;2023-08-24T16:06:29;31.20;70.30
7666;DHT22;3875;46.562;4.898;2023-08-24T16:08:54;31.20;70.00
7666;DHT22;3875;46.562;4.898;2023-08-24T16:11:20;31.60;69.90